createdAt,value
2023-05-27T00:00:01.088Z,17.4
2023-05-27T00:01:00.558Z,17.3
2023-05-27T00:02:00.625Z,17.3
2023-05-27T00:03:00.657Z,17.3
2023-05-27T00:04:00.695Z,17.3
2023-05-27T00:05:00.855Z,17.3
2023-05-27T00:06:00.933Z,17.3
2023-05-27T00:07:00.615Z,17.3
2023-05-27T00:08:00.621Z,17.3
2023-05-27T00:09:00.694Z,17.2
2023-05-27T00:10:00.587Z,17.2
2023-05-27T00:11:00.593Z,17.2
2023-05-27T00:12:00.572Z,17.2
2023-05-27T00:13:00.652Z,17.2
2023-05-27T00:14:00.538Z,17.2
2023-05-27T00:15:00.602Z,17.3
2023-05-27T00:16:00.626Z,17.3
2023-05-27T00:17:00.573Z,17.3
2023-05-27T00:18:00.660Z,17.3
2023-05-27T00:19:00.638Z,17.3
2023-05-27T00:20:00.939Z,17.3
2023-05-27T00:21:00.595Z,17.3
2023-05-27T00:22:00.799Z,17.3
2023-05-27T00:23:00.630Z,17.3
2023-05-27T00:24:00.589Z,17.3
2023-05-27T00:25:00.698Z,17.3
2023-05-27T00:26:00.622Z,17.3
2023-05-27T00:27:00.662Z,17.3
2023-05-27T00:28:00.608Z,17.3
2023-05-27T00:29:00.594Z,17.3
2023-05-27T00:30:00.669Z,17.3
2023-05-27T00:31:00.604Z,17.3
2023-05-27T00:32:00.687Z,17.3
2023-05-27T00:33:00.618Z,17.3
2023-05-27T00:34:00.784Z,17.3
2023-05-27T00:35:00.574Z,17.3
2023-05-27T00:36:00.575Z,17.3
2023-05-27T00:37:00.640Z,17.3
2023-05-27T00:38:00.595Z,17.3
2023-05-27T00:39:00.973Z,17.3
2023-05-27T00:40:00.564Z,17.2
2023-05-27T00:41:01.264Z,17.2
2023-05-27T00:42:00.691Z,17.3
2023-05-27T00:43:00.577Z,17.3
2023-05-27T00:44:01.421Z,17.3
2023-05-27T00:45:00.557Z,17.3
2023-05-27T00:46:00.640Z,17.4
2023-05-27T00:47:00.561Z,17.3
2023-05-27T00:48:02.523Z,17.3
2023-05-27T00:49:00.607Z,17.3
2023-05-27T00:50:01.132Z,17.3
2023-05-27T00:51:00.703Z,17.3
2023-05-27T00:52:00.737Z,17.2
2023-05-27T00:53:00.831Z,17.2
2023-05-27T00:54:00.593Z,17.2
2023-05-27T00:55:00.705Z,17.2
2023-05-27T00:56:01.318Z,17.2
2023-05-27T00:57:00.875Z,17.2
2023-05-27T00:58:00.927Z,17.2
2023-05-27T00:59:00.622Z,17.2
2023-05-27T01:00:00.585Z,17.2
2023-05-27T01:01:01.291Z,17.2
2023-05-27T01:02:00.636Z,17.2
2023-05-27T01:03:00.817Z,17.1
2023-05-27T01:04:00.605Z,17.1
2023-05-27T01:05:00.587Z,17.2
2023-05-27T01:06:05.445Z,17.2
2023-05-27T01:07:07.978Z,17.2
2023-05-27T01:08:09.333Z,17.2
2023-05-27T01:09:09.249Z,17.1
2023-05-27T01:10:00.564Z,17.1
2023-05-27T01:11:00.619Z,17.1
2023-05-27T01:12:10.453Z,17.1
2023-05-27T01:13:05.637Z,17.1
2023-05-27T01:14:04.650Z,17.1
2023-05-27T01:15:02.373Z,17.1
2023-05-27T01:16:02.030Z,17.1
2023-05-27T01:17:02.645Z,17.1
2023-05-27T01:18:02.580Z,17.1
2023-05-27T01:19:00.774Z,17.1
2023-05-27T01:20:01.536Z,17.1
2023-05-27T01:21:05.126Z,17.1
2023-05-27T01:22:01.554Z,17.1
2023-05-27T01:23:01.652Z,17.1
2023-05-27T01:24:04.005Z,17.1
2023-05-27T01:25:00.670Z,17.1
2023-05-27T01:26:00.573Z,17.1
2023-05-27T01:27:00.916Z,17.1
2023-05-27T01:28:00.580Z,17.1
2023-05-27T01:29:00.618Z,17.1
2023-05-27T01:30:01.010Z,17.1
2023-05-27T01:31:10.535Z,17.0
2023-05-27T01:32:01.591Z,17.0
2023-05-27T01:33:07.418Z,17.0
2023-05-27T01:34:06.613Z,17.0
2023-05-27T01:35:03.943Z,17.0
2023-05-27T01:36:04.489Z,17.0
2023-05-27T01:37:04.750Z,17.0
2023-05-27T01:38:04.644Z,17.0
2023-05-27T01:39:01.376Z,17.0
2023-05-27T01:40:00.709Z,17.0
2023-05-27T01:41:00.872Z,17.0
2023-05-27T01:42:01.156Z,17.0
2023-05-27T01:43:00.671Z,17.0
2023-05-27T01:44:01.154Z,17.0
2023-05-27T01:45:01.033Z,17.0
2023-05-27T01:46:01.024Z,17.0
2023-05-27T01:47:01.234Z,17.0
2023-05-27T01:48:00.923Z,17.0
2023-05-27T01:49:00.612Z,17.0
2023-05-27T01:50:00.626Z,17.0
2023-05-27T01:51:00.595Z,17.0
2023-05-27T01:52:00.735Z,16.9
2023-05-27T01:53:00.726Z,16.9
2023-05-27T01:54:00.580Z,16.9
2023-05-27T01:55:00.656Z,16.9
2023-05-27T01:56:00.619Z,16.9
2023-05-27T01:57:00.677Z,16.9
2023-05-27T01:58:00.630Z,16.9
2023-05-27T01:59:00.545Z,16.8
2023-05-27T02:00:00.569Z,16.8
2023-05-27T02:01:00.611Z,16.8
2023-05-27T02:02:00.609Z,16.8
2023-05-27T02:03:00.602Z,16.8
2023-05-27T02:04:00.884Z,16.8
2023-05-27T02:05:00.598Z,16.8
2023-05-27T02:06:00.591Z,16.8
2023-05-27T02:07:00.631Z,16.8
2023-05-27T02:08:00.592Z,16.8
2023-05-27T02:09:00.634Z,16.8
2023-05-27T02:10:00.602Z,16.8
2023-05-27T02:11:00.577Z,16.8
2023-05-27T02:12:00.585Z,16.8
2023-05-27T02:13:00.618Z,16.7
2023-05-27T02:14:00.590Z,16.7
2023-05-27T02:15:00.590Z,16.8
2023-05-27T02:16:00.545Z,16.8
2023-05-27T02:17:00.616Z,16.8
2023-05-27T02:18:00.606Z,16.8
2023-05-27T02:19:01.015Z,16.8
2023-05-27T02:20:00.708Z,16.8
2023-05-27T02:21:00.639Z,16.8
2023-05-27T02:22:00.564Z,16.8
2023-05-27T02:23:01.219Z,16.8
2023-05-27T02:24:00.558Z,16.8
2023-05-27T02:25:00.625Z,16.8
2023-05-27T02:26:00.666Z,16.8
2023-05-27T02:27:04.868Z,16.8
2023-05-27T02:28:00.562Z,16.8
2023-05-27T02:29:00.638Z,16.8
2023-05-27T02:30:00.638Z,16.8
2023-05-27T02:31:00.641Z,16.8
2023-05-27T02:32:00.558Z,16.8
2023-05-27T02:33:00.586Z,16.8
2023-05-27T02:34:00.564Z,16.8
2023-05-27T02:35:00.605Z,16.8
2023-05-27T02:36:00.577Z,16.9
2023-05-27T02:37:00.551Z,16.9
2023-05-27T02:38:00.542Z,16.9
2023-05-27T02:39:00.637Z,16.9
2023-05-27T02:40:00.600Z,16.9
2023-05-27T02:41:00.683Z,16.9
2023-05-27T02:42:00.595Z,16.9
2023-05-27T02:43:00.553Z,16.9
2023-05-27T02:44:00.553Z,16.9
2023-05-27T02:45:00.560Z,16.9
2023-05-27T02:46:00.646Z,16.9
2023-05-27T02:47:00.615Z,16.9
2023-05-27T02:48:00.701Z,16.9
2023-05-27T02:49:00.564Z,16.9
2023-05-27T02:50:00.536Z,16.8
2023-05-27T02:51:00.546Z,16.8
2023-05-27T02:52:00.672Z,16.8
2023-05-27T02:53:00.648Z,16.8
2023-05-27T02:54:00.585Z,16.8
2023-05-27T02:55:00.587Z,16.8
2023-05-27T02:56:00.574Z,16.8
2023-05-27T02:57:00.552Z,16.8
2023-05-27T02:58:00.624Z,16.8
2023-05-27T02:59:00.571Z,16.7
2023-05-27T03:00:00.850Z,16.7
2023-05-27T03:01:00.570Z,16.7
2023-05-27T03:02:00.719Z,16.6
2023-05-27T03:03:00.698Z,16.6
2023-05-27T03:04:00.758Z,16.6
2023-05-27T03:05:00.806Z,16.6
2023-05-27T03:06:00.598Z,16.6
2023-05-27T03:07:00.541Z,16.6
2023-05-27T03:08:01.020Z,16.6
2023-05-27T03:09:00.573Z,16.6
2023-05-27T03:10:00.629Z,16.6
2023-05-27T03:11:00.601Z,16.6
2023-05-27T03:12:00.553Z,16.6
2023-05-27T03:13:00.681Z,16.6
2023-05-27T03:14:00.590Z,16.6
2023-05-27T03:15:00.622Z,16.6
2023-05-27T03:16:00.582Z,16.6
2023-05-27T03:17:00.566Z,16.6
2023-05-27T03:18:00.633Z,16.6
2023-05-27T03:19:00.579Z,16.5
2023-05-27T03:20:00.569Z,16.5
2023-05-27T03:21:00.616Z,16.5
2023-05-27T03:22:00.574Z,16.5
2023-05-27T03:23:00.741Z,16.4
2023-05-27T03:24:00.587Z,16.4
2023-05-27T03:25:00.659Z,16.4
2023-05-27T03:26:00.814Z,16.4
2023-05-27T03:27:00.770Z,16.4
2023-05-27T03:28:00.602Z,16.4
2023-05-27T03:29:00.616Z,16.4
2023-05-27T03:30:00.729Z,16.3
2023-05-27T03:31:00.577Z,16.3
2023-05-27T03:32:00.677Z,16.3
2023-05-27T03:33:01.216Z,16.3
2023-05-27T03:34:00.587Z,16.3
2023-05-27T03:35:00.673Z,16.3
2023-05-27T03:36:00.594Z,16.3
2023-05-27T03:37:00.746Z,16.3
2023-05-27T03:38:00.546Z,16.3
2023-05-27T03:39:00.580Z,16.3
2023-05-27T03:40:00.553Z,16.3
2023-05-27T03:41:00.640Z,16.2
2023-05-27T03:42:00.645Z,16.2
2023-05-27T03:43:00.655Z,16.2
2023-05-27T03:44:00.567Z,16.2
2023-05-27T03:45:00.732Z,16.2
2023-05-27T03:46:00.575Z,16.3
2023-05-27T03:47:02.297Z,16.3
2023-05-27T03:48:00.698Z,16.3
2023-05-27T03:49:00.698Z,16.2
2023-05-27T03:50:00.850Z,16.2
2023-05-27T03:51:00.581Z,16.2
2023-05-27T03:52:00.637Z,16.2
2023-05-27T03:53:00.578Z,16.2
2023-05-27T03:54:00.610Z,16.2
2023-05-27T03:55:00.634Z,16.2
2023-05-27T03:56:00.744Z,16.3
2023-05-27T03:57:00.544Z,16.3
2023-05-27T03:58:00.562Z,16.3
2023-05-27T03:59:00.798Z,16.3
2023-05-27T04:00:00.547Z,16.3
2023-05-27T04:01:00.603Z,16.3
2023-05-27T04:02:00.630Z,16.3
2023-05-27T04:03:00.917Z,16.3
2023-05-27T04:04:00.674Z,16.3
2023-05-27T04:05:00.602Z,16.3
2023-05-27T04:06:00.577Z,16.4
2023-05-27T04:07:00.621Z,16.4
2023-05-27T04:08:01.073Z,16.4
2023-05-27T04:09:00.567Z,16.4
2023-05-27T04:10:00.840Z,16.3
2023-05-27T04:11:00.663Z,16.3
2023-05-27T04:12:00.575Z,16.3
2023-05-27T04:13:00.533Z,16.3
2023-05-27T04:14:00.637Z,16.3
2023-05-27T04:15:00.561Z,16.3
2023-05-27T04:16:00.657Z,16.3
2023-05-27T04:17:00.571Z,16.3
2023-05-27T04:18:00.625Z,16.3
2023-05-27T04:19:00.969Z,16.3
2023-05-27T04:20:00.631Z,16.2
2023-05-27T04:21:00.610Z,16.2
2023-05-27T04:22:00.774Z,16.2
2023-05-27T04:23:00.554Z,16.2
2023-05-27T04:24:00.662Z,16.2
2023-05-27T04:25:00.568Z,16.2
2023-05-27T04:26:00.610Z,16.2
2023-05-27T04:27:00.616Z,16.2
2023-05-27T04:28:01.117Z,16.2
2023-05-27T04:29:00.595Z,16.2
2023-05-27T04:30:00.843Z,16.1
2023-05-27T04:31:01.065Z,16.1
2023-05-27T04:32:00.712Z,16.1
2023-05-27T04:33:00.977Z,16.1
2023-05-27T04:34:00.581Z,16.1
2023-05-27T04:35:00.572Z,16.1
2023-05-27T04:36:00.552Z,16.1
2023-05-27T04:37:00.563Z,16.2
2023-05-27T04:38:00.541Z,16.1
2023-05-27T04:39:00.966Z,16.1
2023-05-27T04:40:00.610Z,16.1
2023-05-27T04:41:00.635Z,16.1
2023-05-27T04:42:00.578Z,16.1
2023-05-27T04:43:00.652Z,16.1
2023-05-27T04:44:00.773Z,16.1
2023-05-27T04:45:00.582Z,16.1
2023-05-27T04:46:00.582Z,16.2
2023-05-27T04:47:00.759Z,16.2
2023-05-27T04:48:00.601Z,16.2
2023-05-27T04:49:00.620Z,16.2
2023-05-27T04:50:00.583Z,16.2
2023-05-27T04:51:00.834Z,16.2
2023-05-27T04:52:00.554Z,16.2
2023-05-27T04:53:03.059Z,16.2
2023-05-27T04:54:00.630Z,16.2
2023-05-27T04:55:00.579Z,16.2
2023-05-27T04:56:00.544Z,16.3
2023-05-27T04:57:00.546Z,16.3
2023-05-27T04:58:00.688Z,16.3
2023-05-27T04:59:00.534Z,16.3
2023-05-27T05:00:00.765Z,16.4
2023-05-27T05:01:00.600Z,16.4
2023-05-27T05:02:00.996Z,16.4
2023-05-27T05:03:00.642Z,16.4
2023-05-27T05:04:00.669Z,16.4
2023-05-27T05:05:01.704Z,16.5
2023-05-27T05:06:00.578Z,16.5
2023-05-27T05:07:00.590Z,16.6
2023-05-27T05:08:00.557Z,16.6
2023-05-27T05:09:00.564Z,16.6
2023-05-27T05:10:00.582Z,16.7
2023-05-27T05:11:00.606Z,16.8
2023-05-27T05:12:00.574Z,16.8
2023-05-27T05:13:00.571Z,16.9
2023-05-27T05:14:00.602Z,16.9
2023-05-27T05:15:01.020Z,17.0
2023-05-27T05:16:00.621Z,17.0
2023-05-27T05:17:00.740Z,17.1
2023-05-27T05:18:01.852Z,17.2
2023-05-27T05:19:00.533Z,17.2
2023-05-27T05:20:00.626Z,17.3
2023-05-27T05:21:00.583Z,17.3
2023-05-27T05:22:00.593Z,17.4
2023-05-27T05:23:00.589Z,17.4
2023-05-27T05:24:00.563Z,17.5
2023-05-27T05:25:00.883Z,17.6
2023-05-27T05:26:00.570Z,17.7
2023-05-27T05:27:00.601Z,17.8
2023-05-27T05:28:00.537Z,17.8
2023-05-27T05:29:00.632Z,17.9
2023-05-27T05:30:00.563Z,18.0
2023-05-27T05:31:00.881Z,18.1
2023-05-27T05:32:00.660Z,18.2
2023-05-27T05:33:00.589Z,18.3
2023-05-27T05:34:00.539Z,18.4
2023-05-27T05:35:00.628Z,18.4
2023-05-27T05:36:01.383Z,18.6
2023-05-27T05:37:00.573Z,18.7
2023-05-27T05:38:00.641Z,18.8
2023-05-27T05:39:00.546Z,18.8
2023-05-27T05:40:00.567Z,18.9
2023-05-27T05:41:00.580Z,19.0
2023-05-27T05:42:00.582Z,19.1
2023-05-27T05:43:00.560Z,19.2
2023-05-27T05:44:00.544Z,19.2
2023-05-27T05:45:00.575Z,19.3
2023-05-27T05:46:00.572Z,19.4
2023-05-27T05:47:00.741Z,19.5
2023-05-27T05:48:00.593Z,19.6
2023-05-27T05:49:00.653Z,19.7
2023-05-27T05:50:00.587Z,19.8
2023-05-27T05:51:00.580Z,19.9
2023-05-27T05:52:00.606Z,19.9
2023-05-27T05:53:00.578Z,20.1
2023-05-27T05:54:00.735Z,20.2
2023-05-27T05:55:00.551Z,20.3
2023-05-27T05:56:00.552Z,20.6
2023-05-27T05:57:00.596Z,20.8
2023-05-27T05:59:00.693Z,21.2
2023-05-27T06:00:00.620Z,21.3
2023-05-27T06:01:00.579Z,21.5
2023-05-27T06:02:00.543Z,21.6
2023-05-27T06:03:00.677Z,21.8
2023-05-27T06:04:00.709Z,21.9
2023-05-27T06:06:00.550Z,22.4
2023-05-27T06:07:02.095Z,22.4
2023-05-27T06:08:00.553Z,22.7
2023-05-27T06:09:00.984Z,22.8
2023-05-27T06:10:00.584Z,22.9
2023-05-27T06:11:00.612Z,23.1
2023-05-27T06:12:00.624Z,23.2
2023-05-27T06:13:00.733Z,23.4
2023-05-27T06:14:00.546Z,23.5
2023-05-27T06:15:00.588Z,23.7
2023-05-27T06:16:00.593Z,23.7
2023-05-27T06:38:00.752Z,26.3
2023-05-27T07:04:00.675Z,28.8
2023-05-27T10:37:00.975Z,33.0
2023-05-27T10:38:00.781Z,33.0
2023-05-27T10:47:01.872Z,32.0
2023-05-27T10:48:00.986Z,31.8
2023-05-27T10:49:09.057Z,31.8
2023-05-27T10:50:09.259Z,31.8
2023-05-27T10:51:00.815Z,31.6
2023-05-27T10:52:05.492Z,31.6
2023-05-27T10:53:00.798Z,31.4
2023-05-27T10:54:23.255Z,31.5
2023-05-27T10:55:01.692Z,31.5
2023-05-27T10:56:00.805Z,31.7
2023-05-27T10:57:01.903Z,31.6
2023-05-27T10:58:00.932Z,31.5
2023-05-27T10:59:01.200Z,31.3
2023-05-27T11:00:03.792Z,31.2
2023-05-27T11:01:07.064Z,31.3
2023-05-27T11:02:00.888Z,31.2
2023-05-27T11:03:00.849Z,31.2
2023-05-27T11:04:00.877Z,31.4
2023-05-27T11:05:00.860Z,31.4
2023-05-27T11:06:01.765Z,31.6
2023-05-27T11:07:03.357Z,31.7
2023-05-27T11:08:00.828Z,31.7
2023-05-27T11:09:00.841Z,31.7
2023-05-27T11:10:00.953Z,31.7
2023-05-27T11:11:02.901Z,31.8
2023-05-27T11:12:02.146Z,31.6
2023-05-27T11:13:00.822Z,31.7
2023-05-27T11:14:00.800Z,31.7
2023-05-27T11:15:00.994Z,31.7
2023-05-27T11:16:01.661Z,31.9
2023-05-27T11:17:00.752Z,32.0
2023-05-27T11:18:02.253Z,31.7
2023-05-27T11:19:00.831Z,31.7
2023-05-27T11:20:00.840Z,31.5
2023-05-27T11:21:01.057Z,31.4
2023-05-27T11:22:00.940Z,31.3
2023-05-27T11:23:00.802Z,31.3
2023-05-27T11:24:00.852Z,31.3
2023-05-27T11:25:01.899Z,31.4
2023-05-27T11:26:00.893Z,31.4
2023-05-27T11:27:07.819Z,31.4
2023-05-27T11:28:00.802Z,31.0
2023-05-27T11:29:01.387Z,30.9
2023-05-27T11:30:05.790Z,30.9
2023-05-27T11:31:03.248Z,30.9
2023-05-27T11:32:01.034Z,30.9
2023-05-27T11:33:02.373Z,31.2
2023-05-27T11:34:00.895Z,31.0
2023-05-27T11:35:00.810Z,31.0
2023-05-27T11:36:04.772Z,31.0
2023-05-27T11:37:01.445Z,31.1
2023-05-27T11:38:00.901Z,31.2
2023-05-27T11:39:00.857Z,31.3
2023-05-27T11:40:01.185Z,31.4
2023-05-27T11:41:08.349Z,31.1
2023-05-27T11:42:04.940Z,30.9
2023-05-27T11:43:00.916Z,31.1
2023-05-27T11:44:03.557Z,31.1
2023-05-27T11:45:00.806Z,31.3
2023-05-27T11:46:03.977Z,31.2
2023-05-27T11:47:00.969Z,31.0
2023-05-27T11:48:02.350Z,31.0
2023-05-27T11:49:01.423Z,31.0
2023-05-27T11:50:02.714Z,30.8
2023-05-27T11:51:00.865Z,30.8
2023-05-27T11:52:03.468Z,30.4
2023-05-27T11:53:02.702Z,30.2
2023-05-27T11:54:00.849Z,30.3
2023-05-27T11:55:00.922Z,30.2
2023-05-27T11:56:05.476Z,30.3
2023-05-27T11:57:00.737Z,30.4
2023-05-27T11:58:00.735Z,30.4
2023-05-27T11:59:00.797Z,30.3
2023-05-27T12:00:00.756Z,30.4
2023-05-27T12:01:00.836Z,30.4
2023-05-27T12:02:00.889Z,30.5
2023-05-27T12:03:00.936Z,30.6
2023-05-27T12:04:00.720Z,30.5
2023-05-27T12:05:00.857Z,30.5
2023-05-27T12:06:00.823Z,30.7
2023-05-27T12:07:03.267Z,31.0
2023-05-27T12:08:00.894Z,30.9
2023-05-27T12:09:02.046Z,30.5
2023-05-27T12:10:01.428Z,30.2
2023-05-27T12:11:01.368Z,30.2
2023-05-27T12:12:00.751Z,30.4
2023-05-27T12:13:02.349Z,30.6
2023-05-27T12:14:01.102Z,30.6
2023-05-27T12:15:01.318Z,30.8
2023-05-27T12:16:00.833Z,31.2
2023-05-27T12:17:00.767Z,31.4
2023-05-27T12:18:00.982Z,31.4
2023-05-27T12:19:00.784Z,31.2
2023-05-27T12:20:00.808Z,31.4
2023-05-27T12:21:00.741Z,31.4
2023-05-27T12:22:00.824Z,31.1
2023-05-27T12:23:00.731Z,31.1
2023-05-27T12:24:00.760Z,31.0
2023-05-27T12:25:00.743Z,31.0
2023-05-27T12:26:00.755Z,31.2
2023-05-27T12:27:00.887Z,31.3
2023-05-27T12:28:00.755Z,31.3
2023-05-27T12:29:00.727Z,31.4
2023-05-27T12:30:00.768Z,31.4
2023-05-27T12:31:00.895Z,31.6
2023-05-27T12:32:00.771Z,31.5
2023-05-27T12:33:01.456Z,31.4
2023-05-27T12:34:00.736Z,31.5
2023-05-27T12:35:00.766Z,31.6
2023-05-27T12:36:01.123Z,31.7
2023-05-27T12:37:00.753Z,31.6
2023-05-27T12:38:01.205Z,31.5
2023-05-27T12:39:00.751Z,31.3
2023-05-27T12:40:00.784Z,31.5
2023-05-27T12:41:00.728Z,31.5
2023-05-27T12:42:00.742Z,31.5
2023-05-27T12:43:00.801Z,31.8
2023-05-27T12:44:00.740Z,31.7
2023-05-27T12:45:00.770Z,31.9
2023-05-27T12:46:00.765Z,32.1
2023-05-27T12:47:00.790Z,32.2
2023-05-27T12:48:00.831Z,32.2
2023-05-27T12:49:00.850Z,32.1
2023-05-27T12:50:00.771Z,32.1
2023-05-27T12:51:00.779Z,32.1
2023-05-27T12:52:00.745Z,32.2
2023-05-27T12:53:00.778Z,32.2
2023-05-27T12:54:00.773Z,32.2
2023-05-27T12:55:00.802Z,32.4
2023-05-27T12:56:00.722Z,32.5
2023-05-27T12:57:00.726Z,32.8
2023-05-27T12:58:00.881Z,33.0
2023-05-27T12:59:00.783Z,32.8
2023-05-27T13:00:01.025Z,33.0
2023-05-27T13:01:00.831Z,32.8
2023-05-27T13:02:00.880Z,32.8
2023-05-27T13:03:00.909Z,32.8
2023-05-27T13:04:00.817Z,33.0
2023-05-27T13:05:00.742Z,32.9
2023-05-27T13:06:00.770Z,33.0
2023-05-27T13:07:00.727Z,33.4
2023-05-27T13:08:01.628Z,33.1
2023-05-27T13:09:00.734Z,33.2
2023-05-27T13:10:01.344Z,33.3
2023-05-27T13:11:00.826Z,33.3
2023-05-27T13:12:00.771Z,33.3
2023-05-27T13:13:01.057Z,33.2
2023-05-27T13:14:00.734Z,33.2
2023-05-27T13:15:01.272Z,33.1
2023-05-27T13:16:00.778Z,33.2
2023-05-27T13:17:00.977Z,33.2
2023-05-27T13:18:00.875Z,33.3
2023-05-27T13:19:00.765Z,33.2
2023-05-27T13:20:00.764Z,33.1
2023-05-27T13:21:00.786Z,32.9
2023-05-27T13:22:00.816Z,32.8
2023-05-27T13:23:01.136Z,32.8
2023-05-27T13:24:00.795Z,32.8
2023-05-27T13:25:00.875Z,32.8
2023-05-27T13:26:00.750Z,32.9
2023-05-27T13:27:00.736Z,32.9
2023-05-27T13:28:00.741Z,32.9
2023-05-27T13:29:00.778Z,32.8
2023-05-27T13:30:00.741Z,32.6
2023-05-27T13:31:00.769Z,32.7
2023-05-27T13:32:00.875Z,32.5
2023-05-27T13:33:00.980Z,32.5
2023-05-27T13:34:00.740Z,32.4
2023-05-27T13:35:01.258Z,32.2
2023-05-27T13:36:00.788Z,32.3
2023-05-27T13:37:01.922Z,32.6
2023-05-27T13:38:00.723Z,32.5
2023-05-27T13:39:00.738Z,32.5
2023-05-27T13:40:00.794Z,32.5
2023-05-27T13:41:00.699Z,32.5
2023-05-27T13:42:00.715Z,32.6
2023-05-27T13:43:00.751Z,32.6
2023-05-27T13:44:01.024Z,32.4
2023-05-27T13:45:00.744Z,32.3
2023-05-27T13:46:00.965Z,32.5
2023-05-27T13:47:00.744Z,32.7
2023-05-27T13:48:00.836Z,32.8
2023-05-27T13:49:00.756Z,32.8
2023-05-27T13:50:00.794Z,32.8
2023-05-27T13:51:00.781Z,32.9
2023-05-27T13:52:00.749Z,32.9
2023-05-27T13:53:00.747Z,33.2
2023-05-27T13:54:00.739Z,33.3
2023-05-27T13:55:01.960Z,33.4
2023-05-27T13:56:00.748Z,33.4
2023-05-27T13:57:00.731Z,33.5
2023-05-27T13:58:00.802Z,33.5
2023-05-27T13:59:00.780Z,33.3
2023-05-27T14:00:00.758Z,33.5
2023-05-27T14:01:00.769Z,33.9
2023-05-27T14:02:00.864Z,33.7
2023-05-27T14:03:00.881Z,33.6
2023-05-27T14:04:00.943Z,33.5
2023-05-27T14:05:01.201Z,33.6
2023-05-27T14:06:00.839Z,33.7
2023-05-27T14:07:00.857Z,34.0
2023-05-27T14:08:00.750Z,33.7
2023-05-27T14:09:01.037Z,33.7
2023-05-27T14:10:00.753Z,33.5
2023-05-27T14:11:01.496Z,33.2
2023-05-27T14:12:00.729Z,33.1
2023-05-27T14:13:00.779Z,33.0
2023-05-27T14:14:00.712Z,32.8
2023-05-27T14:15:00.886Z,32.7
2023-05-27T14:16:00.805Z,32.6
2023-05-27T14:17:00.836Z,32.7
2023-05-27T14:18:00.766Z,32.6
2023-05-27T14:19:00.776Z,32.6
2023-05-27T14:20:00.752Z,32.3
2023-05-27T14:21:00.745Z,32.3
2023-05-27T14:22:00.789Z,32.3
2023-05-27T14:23:00.751Z,32.1
2023-05-27T14:24:00.792Z,32.2
2023-05-27T14:25:00.782Z,32.4
2023-05-27T14:26:00.805Z,32.6
2023-05-27T14:27:00.720Z,33.0
2023-05-27T14:28:00.844Z,33.1
2023-05-27T14:29:00.760Z,33.2
2023-05-27T14:30:00.761Z,33.2
2023-05-27T14:31:00.764Z,33.1
2023-05-27T14:32:00.877Z,33.2
2023-05-27T14:33:00.760Z,33.2
2023-05-27T14:34:00.824Z,33.1
2023-05-27T14:35:00.804Z,33.2
2023-05-27T14:36:00.763Z,32.8
2023-05-27T14:37:00.729Z,32.8
2023-05-27T14:38:00.947Z,32.8
2023-05-27T14:39:00.762Z,32.9
2023-05-27T14:40:00.821Z,33.0
2023-05-27T14:41:00.784Z,33.1
2023-05-27T14:42:00.749Z,33.4
2023-05-27T14:43:00.802Z,33.3
2023-05-27T14:44:00.733Z,33.3
2023-05-27T14:45:00.753Z,33.5
2023-05-27T14:46:00.852Z,33.5
2023-05-27T14:47:00.840Z,33.8
2023-05-27T14:48:00.753Z,33.9
2023-05-27T14:49:03.464Z,33.7
2023-05-27T14:50:00.812Z,33.8
2023-05-27T14:51:00.704Z,33.6
2023-05-27T14:52:00.804Z,33.5
2023-05-27T14:53:00.911Z,33.1
2023-05-27T14:54:00.772Z,33.0
2023-05-27T14:55:00.779Z,32.4
2023-05-27T14:56:00.848Z,32.3
2023-05-27T14:57:00.788Z,32.6
2023-05-27T14:58:00.859Z,32.5
2023-05-27T14:59:00.741Z,32.5
2023-05-27T15:00:01.416Z,32.3
2023-05-27T15:01:00.856Z,32.3
2023-05-27T15:02:00.764Z,32.4
2023-05-27T15:03:00.893Z,32.5
2023-05-27T15:04:00.880Z,32.5
2023-05-27T15:05:02.021Z,32.5
2023-05-27T15:06:00.791Z,32.5
2023-05-27T15:07:00.757Z,32.5
2023-05-27T15:08:00.783Z,32.5
2023-05-27T15:12:00.878Z,32.1
2023-05-27T15:13:00.739Z,32.1
2023-05-27T15:14:00.740Z,32.2
2023-05-27T15:15:00.734Z,32.2
2023-05-27T15:16:00.738Z,32.3
2023-05-27T15:17:00.792Z,32.3
2023-05-27T15:18:00.998Z,32.4
2023-05-27T15:19:00.770Z,32.5
2023-05-27T15:20:02.043Z,32.5
2023-05-27T15:21:00.755Z,32.6
2023-05-27T15:22:00.735Z,33.1
2023-05-27T15:23:00.944Z,33.4
2023-05-27T15:24:00.690Z,33.5
2023-05-27T15:25:00.964Z,33.5
2023-05-27T15:26:00.727Z,33.4
2023-05-27T15:27:00.920Z,34.0
2023-05-27T15:28:00.748Z,34.4
2023-05-27T15:29:00.788Z,34.5
2023-05-27T15:30:03.080Z,34.8
2023-05-27T15:31:00.875Z,34.8
2023-05-27T15:32:00.927Z,34.8
2023-05-27T15:33:00.782Z,34.9
2023-05-27T15:34:00.973Z,34.7
2023-05-27T15:35:00.728Z,34.7
2023-05-27T15:36:00.877Z,34.4
2023-05-27T15:37:00.756Z,34.6
2023-05-27T15:38:00.706Z,34.6
2023-05-27T15:39:00.731Z,34.5
2023-05-27T15:40:01.020Z,34.6
2023-05-27T15:41:00.710Z,34.4
2023-05-27T15:42:00.750Z,34.2
2023-05-27T15:43:00.732Z,34.2
2023-05-27T15:44:00.775Z,34.2
2023-05-27T15:45:00.956Z,34.2
2023-05-27T15:46:04.323Z,34.2
2023-05-27T15:47:00.818Z,34.2
2023-05-27T15:48:01.061Z,34.0
2023-05-27T15:49:00.762Z,33.9
2023-05-27T15:50:00.926Z,33.5
2023-05-27T15:52:00.716Z,33.4
2023-05-27T15:53:00.813Z,33.2
2023-05-27T15:54:00.736Z,33.1
2023-05-27T15:55:00.814Z,33.1
2023-05-27T15:56:00.942Z,33.0
2023-05-27T15:57:04.628Z,33.2
2023-05-27T15:58:01.289Z,33.2
2023-05-27T15:59:00.708Z,33.1
2023-05-27T16:00:00.785Z,32.8
2023-05-27T16:01:00.743Z,32.7
2023-05-27T16:02:01.187Z,32.8
2023-05-27T16:03:00.773Z,32.7
2023-05-27T16:04:00.749Z,33.0
2023-05-27T16:05:00.751Z,32.9
2023-05-27T16:06:00.753Z,32.8
2023-05-27T16:07:01.947Z,32.8
2023-05-27T16:08:00.732Z,32.6
2023-05-27T16:09:01.073Z,32.5
2023-05-27T16:10:00.794Z,32.4
2023-05-27T16:11:00.725Z,32.0
2023-05-27T16:12:00.711Z,32.0
2023-05-27T16:13:00.785Z,31.6
2023-05-27T16:14:00.764Z,31.4
2023-05-27T16:15:00.895Z,31.5
2023-05-27T16:16:00.777Z,31.2
2023-05-27T16:17:00.740Z,31.2
2023-05-27T16:18:00.878Z,31.2
2023-05-27T16:19:01.378Z,31.1
2023-05-27T16:20:01.022Z,30.8
2023-05-27T16:21:00.766Z,30.6
2023-05-27T16:22:00.755Z,30.6
2023-05-27T16:23:00.753Z,30.4
2023-05-27T16:24:07.594Z,30.3
2023-05-27T16:25:00.788Z,30.0
2023-05-27T16:26:00.769Z,29.8
2023-05-27T16:27:00.738Z,29.8
2023-05-27T16:28:01.527Z,29.7
2023-05-27T16:29:00.841Z,29.4
2023-05-27T16:30:00.766Z,29.3
2023-05-27T16:31:00.873Z,29.2
2023-05-27T16:32:00.779Z,29.1
2023-05-27T16:33:00.770Z,29.1
2023-05-27T16:34:00.827Z,29.1
2023-05-27T16:35:00.734Z,29.3
2023-05-27T16:36:01.137Z,29.4
2023-05-27T16:37:00.731Z,29.6
2023-05-27T16:38:00.762Z,29.5
2023-05-27T16:39:00.801Z,29.6
2023-05-27T16:40:00.839Z,29.5
2023-05-27T16:41:00.768Z,29.5
2023-05-27T16:42:00.780Z,29.3
2023-05-27T16:43:00.747Z,29.4
2023-05-27T16:44:01.006Z,29.4
2023-05-27T16:45:01.003Z,29.5
2023-05-27T16:46:00.834Z,29.4
2023-05-27T16:47:00.831Z,29.5
2023-05-27T16:48:00.761Z,29.4
2023-05-27T16:49:00.728Z,29.3
2023-05-27T16:50:01.032Z,29.1
2023-05-27T16:51:00.762Z,29.1
2023-05-27T16:52:00.741Z,28.9
2023-05-27T16:53:01.912Z,28.8
2023-05-27T16:54:00.754Z,28.8
2023-05-27T16:55:00.758Z,28.8
2023-05-27T16:56:00.754Z,28.8
2023-05-27T16:57:01.916Z,29.1
2023-05-27T16:58:00.767Z,29.1
2023-05-27T16:59:00.754Z,28.9
2023-05-27T17:00:01.709Z,28.8
2023-05-27T17:01:00.765Z,28.8
2023-05-27T17:02:00.820Z,28.8
2023-05-27T17:03:00.859Z,28.9
2023-05-27T17:04:00.854Z,28.9
2023-05-27T17:05:00.826Z,28.9
2023-05-27T17:06:00.754Z,28.9
2023-05-27T17:07:00.749Z,29.0
2023-05-27T17:08:00.850Z,29.0
2023-05-27T17:09:00.739Z,29.0
2023-05-27T17:10:00.757Z,28.9
2023-05-27T17:11:00.791Z,29.0
2023-05-27T17:12:00.826Z,28.9
2023-05-27T17:13:00.783Z,28.7
2023-05-27T17:14:00.789Z,28.6
2023-05-27T17:15:01.611Z,28.4
2023-05-27T17:16:00.796Z,28.3
2023-05-27T17:17:00.733Z,28.5
2023-05-27T17:18:00.815Z,28.5
2023-05-27T17:19:00.744Z,28.5
2023-05-27T17:20:00.772Z,28.3
2023-05-27T17:21:00.917Z,28.3
2023-05-27T17:22:00.786Z,28.2
2023-05-27T17:23:00.734Z,28.0
2023-05-27T17:24:00.836Z,27.8
2023-05-27T17:25:00.894Z,27.5
2023-05-27T17:26:00.733Z,27.4
2023-05-27T17:27:00.742Z,27.5
2023-05-27T17:28:00.811Z,27.4
2023-05-27T17:29:00.732Z,27.3
2023-05-27T17:30:00.762Z,27.2
2023-05-27T17:31:00.745Z,27.0
2023-05-27T17:32:00.736Z,26.8
2023-05-27T17:33:00.848Z,26.8
2023-05-27T17:34:02.538Z,26.5
2023-05-27T17:35:01.280Z,26.4
2023-05-27T17:36:00.765Z,26.4
2023-05-27T17:37:00.787Z,26.3
2023-05-27T17:38:00.745Z,26.2
2023-05-27T17:39:00.803Z,26.2
2023-05-27T17:40:00.769Z,26.3
2023-05-27T17:41:00.852Z,26.3
2023-05-27T17:42:00.746Z,26.2
2023-05-27T17:43:00.730Z,26.3
2023-05-27T17:44:00.775Z,26.3
2023-05-27T17:45:01.011Z,26.2
2023-05-27T17:46:00.793Z,26.3
2023-05-27T17:47:00.872Z,26.3
2023-05-27T17:48:00.772Z,26.3
2023-05-27T17:49:00.987Z,26.2
2023-05-27T17:50:00.969Z,26.1